Time;durP1;ratioP1;P1;durP2;ratioP2;P2;SDS_P1;SDS_P2;PMS_P1;PMS_P2;Temp;Humidity;BMP_temperature;BMP_pressure;BME280_temperature;BME280_humidity;BME280_pressure;Samples;Min_cycle;Max_cycle;Signal;HPM_P1;HPM_P2
2021/12/02 00:01:59;;;;;;;11.00;3.05;;;;;;;2.63;100.00;99737.41;5050503;28;20072;-84
2021/12/02 00:04:26;;;;;;;11.25;3.30;;;;;;;2.61;100.00;99740.09;5049795;28;20033;-85
2021/12/02 00:06:52;;;;;;;8.40;3.13;;;;;;;2.61;100.00;99741.88;5038165;28;20069;-84
2021/12/02 00:09:17;;;;;;;9.60;3.03;;;;;;;2.63;100.00;99745.28;5040066;28;20430;-84
2021/12/02 00:11:42;;;;;;;9.07;3.05;;;;;;;2.62;100.00;99752.31;5050947;28;20024;-85
2021/12/02 00:14:12;;;;;;;11.77;3.40;;;;;;;2.59;100.00;99757.69;5046520;28;20549;-84
2021/12/02 00:16:52;;;;;;;9.27;2.90;;;;;;;2.52;100.00;99755.34;5034915;28;20041;-84
2021/12/02 00:22:02;;;;;;;8.18;3.22;;;;;;;2.52;100.00;99769.31;5029509;28;20036;-85
2021/12/02 00:24:34;;;;;;;12.75;3.03;;;;;;;2.55;100.00;99774.47;5030600;28;20029;-85
2021/12/02 00:27:03;;;;;;;14.07;2.83;;;;;;;2.58;100.00;99776.13;5047084;28;20025;-84
2021/12/02 00:29:29;;;;;;;12.00;2.90;;;;;;;2.58;100.00;99773.50;5039309;28;20022;-84
2021/12/02 00:31:54;;;;;;;9.07;2.80;;;;;;;2.56;100.00;99767.44;5049924;28;20467;-84
2021/12/02 00:34:22;;;;;;;11.52;3.00;;;;;;;2.52;100.00;99757.97;5049238;28;20604;-83
2021/12/02 00:36:47;;;;;;;9.35;3.15;;;;;;;2.60;100.00;99776.94;5031920;28;20493;-85
2021/12/02 00:39:19;;;;;;;8.48;2.33;;;;;;;2.57;100.00;99769.16;5038228;28;20261;-84
2021/12/02 00:41:45;;;;;;;9.65;2.65;;;;;;;2.57;100.00;99771.78;5042461;28;20072;-84
2021/12/02 00:44:12;;;;;;;8.82;3.25;;;;;;;2.55;100.00;99770.97;5031595;28;20326;-84
2021/12/02 00:46:38;;;;;;;9.20;2.17;;;;;;;2.53;100.00;99778.06;5041427;28;20025;-84
2021/12/02 00:49:07;;;;;;;8.30;2.47;;;;;;;2.52;100.00;99769.31;5043416;28;20032;-84
2021/12/02 00:51:34;;;;;;;7.45;2.90;;;;;;;2.54;100.00;99762.22;5047435;28;20082;-85
2021/12/02 00:54:05;;;;;;;8.30;2.55;;;;;;;2.55;100.00;99760.47;5050180;28;20029;-85
2021/12/02 00:56:31;;;;;;;10.63;2.30;;;;;;;2.58;100.00;99757.72;5031821;28;20035;-84
2021/12/02 00:58:57;;;;;;;9.95;2.72;;;;;;;2.58;100.00;99760.34;5030484;28;20111;-85
2021/12/02 01:01:26;;;;;;;12.88;3.28;;;;;;;2.55;100.00;99755.22;5034084;28;20040;-84
2021/12/02 01:03:57;;;;;;;15.15;3.40;;;;;;;2.50;100.00;99748.34;5040071;28;20154;-85
2021/12/02 01:06:22;;;;;;;8.52;3.05;;;;;;;2.52;100.00;99750.09;5033774;28;20025;-85
2021/12/02 01:08:47;;;;;;;8.55;3.00;;;;;;;2.52;100.00;99753.56;5038251;28;20021;-84
2021/12/02 01:11:13;;;;;;;10.77;2.72;;;;;;;2.52;100.00;99757.97;5046862;28;20028;-84
2021/12/02 01:13:39;;;;;;;11.75;3.10;;;;;;;2.49;100.00;99756.28;5048616;28;20117;-86
2021/12/02 01:16:05;;;;;;;8.52;2.55;;;;;;;2.53;100.00;99760.53;5040104;28;20029;-83
2021/12/02 01:18:30;;;;;;;9.27;2.55;;;;;;;2.49;100.00;99753.66;5042700;28;20037;-84
2021/12/02 01:20:56;;;;;;;5.75;2.67;;;;;;;2.53;100.00;99757.91;5045791;28;20025;-84
2021/12/02 01:23:23;;;;;;;8.95;2.47;;;;;;;2.49;100.00;99754.53;5035514;28;20029;-84
2021/12/02 01:26:05;;;;;;;5.60;2.35;;;;;;;2.52;100.00;99763.22;5031745;28;20485;-84
2021/12/02 01:28:32;;;;;;;8.45;2.83;;;;;;;2.54;100.00;99766.63;5047452;28;20486;-84
2021/12/02 01:30:58;;;;;;;11.82;3.05;;;;;;;2.60;100.00;99777.78;5035793;28;20033;-85
2021/12/02 01:33:26;;;;;;;12.10;3.15;;;;;;;2.63;100.00;99774.19;5043794;28;20021;-84
2021/12/02 01:35:59;;;;;;;9.52;2.60;;;;;;;2.65;100.00;99767.13;5035148;28;20102;-84
2021/12/02 01:38:26;;;;;;;8.60;2.77;;;;;;;2.68;100.00;99780.16;5034492;28;20039;-84
2021/12/02 01:40:53;;;;;;;10.40;3.13;;;;;;;2.68;100.00;99783.63;5031507;28;20095;-84
2021/12/02 01:43:21;;;;;;;10.85;2.70;;;;;;;2.70;100.00;99787.06;5039321;28;20056;-84
2021/12/02 01:45:46;;;;;;;9.10;3.00;;;;;;;2.70;100.00;99778.31;5035176;28;20037;-83
2021/12/02 01:48:20;;;;;;;10.32;2.58;;;;;;;2.64;100.00;99781.19;5045475;28;20070;-83
2021/12/02 01:51:00;;;;;;;7.93;3.42;;;;;;;2.57;100.00;99785.78;5037438;28;20064;-83
2021/12/02 01:53:31;;;;;;;8.60;3.58;;;;;;;2.55;100.00;99777.09;5040689;28;20478;-83
2021/12/02 01:56:09;;;;;;;7.50;3.63;;;;;;;2.47;100.00;99771.25;5032663;28;20025;-84
2021/12/02 01:58:41;;;;;;;6.65;3.42;;;;;;;2.45;100.00;99783.56;5043955;28;20090;-83
2021/12/02 02:01:12;;;;;;;10.93;3.47;;;;;;;2.41;100.00;99785.44;5042603;28;20489;-84
2021/12/02 02:03:39;;;;;;;9.00;3.97;;;;;;;2.37;100.00;99781.19;5039714;28;20087;-83
2021/12/02 02:06:05;;;;;;;6.55;3.97;;;;;;;2.37;100.00;99773.31;5028210;28;20029;-84
2021/12/02 02:08:30;;;;;;;8.73;3.92;;;;;;;2.40;100.00;99778.47;5042975;28;20052;-85
2021/12/02 02:10:55;;;;;;;10.43;4.35;;;;;;;2.41;100.00;99787.22;5029171;28;20041;-85
2021/12/02 02:13:21;;;;;;;8.13;4.35;;;;;;;2.33;100.00;99779.59;5038184;28;20120;-85
2021/12/02 02:15:50;;;;;;;6.55;3.38;;;;;;;2.28;100.00;99791.16;5045694;28;20502;-85
2021/12/02 02:18:21;;;;;;;6.00;3.67;;;;;;;2.23;100.00;99788.72;5018720;28;20017;-85
2021/12/02 02:21:03;;;;;;;6.70;3.88;;;;;;;2.25;100.00;99784.25;5028733;28;20025;-85
2021/12/02 02:23:36;;;;;;;8.15;4.20;;;;;;;2.28;100.00;99789.41;5029168;28;20068;-85
2021/12/02 02:26:02;;;;;;;8.30;4.55;;;;;;;2.28;100.00;99785.91;5029552;28;20387;-84
2021/12/02 02:28:30;;;;;;;9.45;3.83;;;;;;;2.22;100.00;99784.38;5029571;28;20033;-84
2021/12/02 02:30:55;;;;;;;6.88;3.90;;;;;;;2.14;100.00;99782.00;5037710;28;20036;-85
2021/12/02 02:33:22;;;;;;;6.68;4.05;;;;;;;2.05;100.00;99776.16;5042905;28;20054;-85
2021/12/02 02:35:48;;;;;;;6.82;3.83;;;;;;;1.96;100.00;99778.19;5030607;28;20087;-85
2021/12/02 02:38:14;;;;;;;8.85;3.90;;;;;;;1.92;100.00;99776.59;5036352;28;20024;-85
2021/12/02 02:40:43;;;;;;;8.18;3.85;;;;;;;1.86;100.00;99773.31;5033416;28;20033;-85
2021/12/02 02:43:10;;;;;;;8.98;4.13;;;;;;;1.79;100.00;99769.16;5035366;28;20051;-85
2021/12/02 02:45:36;;;;;;;7.75;4.20;;;;;;;1.75;100.00;99771.00;5032273;28;20037;-84
2021/12/02 02:48:02;;;;;;;8.25;3.92;;;;;;;1.67;100.00;99770.41;5028070;28;20053;-85
2021/12/02 02:50:30;;;;;;;6.00;3.70;;;;;;;1.63;100.00;99774.91;5028465;28;20029;-85
2021/12/02 02:53:20;;;;;;;5.68;4.13;;;;;;;1.64;100.00;99784.47;5041426;28;20107;-85
2021/12/02 02:56:30;;;;;;;7.38;3.20;;;;;;;1.65;100.00;99775.69;5044409;28;20090;-86
2021/12/02 02:58:55;;;;;;;7.10;3.40;;;;;;;1.80;100.00;99790.13;5019736;28;20091;-84
2021/12/02 03:06:43;;;;;;;7.00;3.10;;;;;;;1.62;100.00;99788.91;5046034;28;20039;-85
2021/12/02 03:09:20;;;;;;;8.80;3.15;;;;;;;1.58;100.00;99776.78;5033086;28;20029;-85
2021/12/02 03:11:49;;;;;;;8.07;2.97;;;;;;;1.61;100.00;99789.81;5028518;28;20032;-85
2021/12/02 03:14:20;;;;;;;8.45;3.13;;;;;;;1.57;100.00;99769.84;5039437;28;20028;-84
2021/12/02 03:16:46;;;;;;;8.05;3.40;;;;;;;1.62;100.00;99767.91;5027397;28;20059;-85
2021/12/02 03:19:22;;;;;;;6.70;3.25;;;;;;;1.65;100.00;99772.22;5028380;28;20098;-85
2021/12/02 03:21:47;;;;;;;5.50;3.03;;;;;;;1.68;100.00;99780.00;5015113;28;20040;-85
2021/12/02 03:24:12;;;;;;;8.93;4.05;;;;;;;1.69;100.00;99782.56;5035716;28;20406;-85
2021/12/02 03:26:38;;;;;;;6.63;3.22;;;;;;;1.64;100.00;99775.75;5045089;28;20382;-85
2021/12/02 03:29:05;;;;;;;7.57;3.28;;;;;;;1.58;100.00;99781.19;5038039;28;20032;-85
2021/12/02 03:31:30;;;;;;;8.60;3.38;;;;;;;1.68;100.00;99785.25;5028070;28;20052;-86
2021/12/02 03:33:55;;;;;;;14.75;3.63;;;;;;;1.74;100.00;99790.28;5037222;28;20506;-85
2021/12/02 03:36:21;;;;;;;7.75;2.95;;;;;;;1.75;100.00;99786.75;5027239;28;20041;-85
2021/12/02 03:38:47;;;;;;;8.85;3.15;;;;;;;1.83;100.00;99789.13;5040170;28;20029;-85
2021/12/02 03:41:13;;;;;;;4.95;2.70;;;;;;;1.85;100.00;99796.06;5031113;28;20029;-85
2021/12/02 03:43:41;;;;;;;5.43;2.65;;;;;;;1.84;100.00;99802.22;5022012;28;20025;-85
2021/12/02 03:46:09;;;;;;;9.15;2.92;;;;;;;1.86;100.00;99816.16;5040282;28;20441;-85
2021/12/02 03:48:36;;;;;;;4.45;2.42;;;;;;;1.86;100.00;99807.41;5040249;28;20229;-84
2021/12/02 03:51:04;;;;;;;8.82;3.10;;;;;;;1.88;100.00;99801.22;5021837;28;20059;-84
2021/12/02 03:53:30;;;;;;;9.82;2.92;;;;;;;1.95;100.00;99821.09;5033810;28;20044;-83
2021/12/02 03:55:55;;;;;;;7.47;3.10;;;;;;;1.94;100.00;99816.75;5040805;28;20026;-83
2021/12/02 03:58:20;;;;;;;12.77;3.67;;;;;;;1.91;100.00;99810.75;5038528;28;20391;-84
2021/12/02 04:00:46;;;;;;;6.97;2.97;;;;;;;1.86;100.00;99816.16;5044646;28;20029;-83
2021/12/02 04:03:11;;;;;;;4.45;2.60;;;;;;;1.91;100.00;99816.84;5047693;28;20029;-84
2021/12/02 04:05:36;;;;;;;6.00;2.42;;;;;;;1.87;100.00;99815.22;5049541;28;20021;-85
2021/12/02 04:08:02;;;;;;;7.50;2.35;;;;;;;1.83;100.00;99808.34;5045253;28;20070;-84
2021/12/02 04:10:27;;;;;;;8.52;2.75;;;;;;;1.68;100.00;99782.63;5038107;28;20033;-84
2021/12/02 04:13:43;;;;;;;7.97;2.30;;;;;;;1.75;100.00;99799.88;5043958;28;20036;-85
2021/12/02 04:15:40;;;;;;;9.60;3.65;;;;;;;1.73;100.00;99791.22;5036558;28;20040;-84
2021/12/02 04:18:06;;;;;;;10.35;2.80;;;;;;;1.68;100.00;99788.72;5046340;28;20040;-84
2021/12/02 04:20:32;;;;;;;9.07;3.00;;;;;;;1.55;100.00;99770.78;5050526;28;20044;-84
2021/12/02 04:22:58;;;;;;;7.53;3.35;;;;;;;1.59;100.00;99788.13;5042436;28;20029;-84
2021/12/02 04:25:24;;;;;;;5.18;3.50;;;;;;;1.56;100.00;99791.72;5030673;28;20021;-85
2021/12/02 04:27:51;;;;;;;10.15;3.67;;;;;;;1.57;100.00;99797.84;5016851;28;20041;-84
2021/12/02 04:30:19;;;;;;;8.00;3.42;;;;;;;1.63;100.00;99795.91;5043026;28;20082;-84
2021/12/02 04:32:45;;;;;;;7.15;3.20;;;;;;;1.63;100.00;99789.75;5036892;28;20193;-84
2021/12/02 04:35:11;;;;;;;9.98;3.60;;;;;;;1.62;100.00;99782.81;5031100;28;20064;-84
2021/12/02 04:37:38;;;;;;;9.55;3.42;;;;;;;1.68;100.00;99799.22;5030771;28;20021;-84
2021/12/02 04:40:04;;;;;;;8.55;3.17;;;;;;;1.65;100.00;99787.97;5037705;28;20022;-84
2021/12/02 04:42:29;;;;;;;10.20;2.80;;;;;;;1.57;100.00;99784.72;5048026;28;20040;-84
2021/12/02 04:44:55;;;;;;;8.00;2.47;;;;;;;1.53;100.00;99791.81;5035148;28;20029;-84
2021/12/02 04:47:20;;;;;;;10.18;3.15;;;;;;;1.43;100.00;99788.63;5045437;28;20150;-84
2021/12/02 04:49:46;;;;;;;8.05;2.53;;;;;;;1.48;100.00;99799.81;5048633;28;20104;-83
2021/12/02 04:52:11;;;;;;;8.95;2.80;;;;;;;1.46;100.00;99808.63;5032879;28;20079;-84
2021/12/02 04:54:36;;;;;;;7.18;2.72;;;;;;;1.45;100.00;99812.16;5047757;28;20056;-84
2021/12/02 04:57:03;;;;;;;7.20;2.80;;;;;;;1.54;100.00;99822.38;5035529;28;20026;-84
2021/12/02 04:59:28;;;;;;;8.70;3.03;;;;;;;1.58;100.00;99828.38;5047200;28;20029;-84
2021/12/02 05:01:53;;;;;;;13.68;3.47;;;;;;;1.61;100.00;99830.94;5036408;28;20390;-84
2021/12/02 05:04:19;;;;;;;8.73;3.60;;;;;;;1.65;100.00;99829.94;5043699;28;20425;-85
2021/12/02 05:06:44;;;;;;;13.77;3.80;;;;;;;1.70;100.00;99839.38;5029783;28;20075;-83
2021/12/02 05:09:10;;;;;;;12.70;3.25;;;;;;;1.67;100.00;99828.09;5044147;28;20446;-84
2021/12/02 05:11:38;;;;;;;9.43;3.13;;;;;;;1.65;100.00;99825.53;5043098;28;20040;-85
2021/12/02 05:14:03;;;;;;;11.35;3.08;;;;;;;1.61;100.00;99833.56;5033246;28;20022;-85
2021/12/02 05:16:28;;;;;;;8.32;2.83;;;;;;;1.42;100.00;99823.63;5031552;28;20086;-84
2021/12/02 05:18:53;;;;;;;7.93;2.80;;;;;;;1.42;100.00;99826.25;5048598;28;20075;-84
2021/12/02 05:21:19;;;;;;;9.45;2.67;;;;;;;1.45;100.00;99836.63;5049027;28;20025;-84
2021/12/02 05:23:44;;;;;;;10.27;3.05;;;;;;;1.47;100.00;99833.97;5034998;28;20029;-84
2021/12/02 05:26:10;;;;;;;9.60;2.88;;;;;;;1.44;100.00;99837.53;5028257;28;20395;-85
2021/12/02 05:28:35;;;;;;;8.77;2.88;;;;;;;1.44;100.00;99832.28;5043775;28;20616;-84
2021/12/02 05:31:00;;;;;;;5.95;2.70;;;;;;;1.52;100.00;99847.81;5046791;28;20112;-84
2021/12/02 05:33:26;;;;;;;9.95;2.80;;;;;;;1.48;100.00;99831.28;5039180;28;20120;-84
2021/12/02 05:35:51;;;;;;;8.88;2.40;;;;;;;1.59;100.00;99858.94;5040539;28;20163;-84
2021/12/02 05:38:16;;;;;;;7.65;2.70;;;;;;;1.55;100.00;99868.69;5049033;28;20032;-84
2021/12/02 05:40:42;;;;;;;5.45;2.33;;;;;;;1.47;100.00;99862.81;5033057;28;20398;-85
2021/12/02 05:43:07;;;;;;;6.03;2.30;;;;;;;1.40;100.00;99863.91;5015845;28;20083;-86
2021/12/02 05:45:32;;;;;;;6.43;2.35;;;;;;;1.35;100.00;99858.78;5029592;28;20030;-86
2021/12/02 05:47:58;;;;;;;4.88;1.90;;;;;;;1.28;100.00;99841.50;5037361;28;20056;-85
2021/12/02 05:50:23;;;;;;;5.82;1.73;;;;;;;1.20;100.00;99849.59;5031454;28;20197;-85
2021/12/02 05:52:49;;;;;;;3.35;1.48;;;;;;;1.15;100.00;99853.25;5037716;28;20115;-85
2021/12/02 05:55:14;;;;;;;2.58;1.80;;;;;;;1.02;100.00;99846.63;5036909;28;20530;-85
2021/12/02 05:57:39;;;;;;;4.32;2.03;;;;;;;0.91;100.00;99850.38;5045599;28;20090;-84
2021/12/02 06:00:07;;;;;;;3.38;1.60;;;;;;;0.88;100.00;99862.72;5037310;28;20024;-85
2021/12/02 06:02:35;;;;;;;2.78;1.60;;;;;;;0.87;100.00;99861.00;5043090;28;20032;-86
2021/12/02 06:05:01;;;;;;;3.40;1.83;;;;;;;0.87;100.00;99864.47;5031291;28;20112;-85
2021/12/02 06:07:26;;;;;;;3.65;1.45;;;;;;;0.94;100.00;99873.03;5046389;28;20108;-84
2021/12/02 06:09:53;;;;;;;9.00;2.70;;;;;;;0.96;100.00;99882.59;5037831;28;20041;-85
2021/12/02 06:12:18;;;;;;;1.48;1.30;;;;;;;0.92;100.00;99886.19;5031906;28;20021;-85
2021/12/02 06:14:44;;;;;;;3.13;1.90;;;;;;;0.87;100.00;99872.34;5037022;28;20037;-86
2021/12/02 06:17:09;;;;;;;5.93;2.30;;;;;;;0.86;100.00;99857.53;5043794;28;20413;-85
2021/12/02 06:19:35;;;;;;;5.25;2.90;;;;;;;0.82;100.00;99858.50;5046925;28;20044;-86
2021/12/02 06:22:00;;;;;;;4.05;1.95;;;;;;;0.65;100.00;99850.25;5033059;28;20421;-85
2021/12/02 06:24:30;;;;;;;4.65;1.92;;;;;;;0.68;100.00;99876.34;5045690;28;20055;-86
2021/12/02 06:26:56;;;;;;;6.38;1.80;;;;;;;0.51;100.00;99862.84;5045431;28;20051;-85
2021/12/02 06:29:22;;;;;;;5.50;2.10;;;;;;;0.43;100.00;99876.13;5046835;28;20029;-85
2021/12/02 06:31:47;;;;;;;3.30;1.65;;;;;;;0.36;100.00;99871.94;5036849;28;20029;-86
2021/12/02 06:34:12;;;;;;;2.58;2.00;;;;;;;0.30;100.00;99878.19;5044958;28;20025;-86
2021/12/02 06:36:38;;;;;;;5.53;1.80;;;;;;;0.31;100.00;99885.13;5040245;28;20094;-86
2021/12/02 06:39:04;;;;;;;3.40;1.52;;;;;;;0.34;100.00;99889.44;5045628;28;20446;-86
2021/12/02 06:41:30;;;;;;;3.50;1.40;;;;;;;0.39;100.00;99891.03;5021921;28;20032;-86
2021/12/02 06:43:55;;;;;;;3.80;1.70;;;;;;;0.42;100.00;99880.50;5036293;28;20497;-86
2021/12/02 06:46:21;;;;;;;6.63;2.35;;;;;;;0.46;100.00;99876.91;5030289;28;20017;-86
2021/12/02 06:48:48;;;;;;;4.97;2.42;;;;;;;0.55;100.00;99874.97;5031579;28;20037;-85
2021/12/02 06:51:14;;;;;;;7.90;2.72;;;;;;;0.58;100.00;99880.94;5041501;28;20028;-85
2021/12/02 06:53:40;;;;;;;4.00;2.40;;;;;;;0.57;100.00;99881.84;5042461;28;20029;-85
2021/12/02 06:56:05;;;;;;;5.93;2.53;;;;;;;0.57;100.00;99881.00;5038640;28;20041;-84
2021/12/02 06:58:30;;;;;;;6.55;3.35;;;;;;;0.57;100.00;99881.00;5041385;28;20029;-84
2021/12/02 07:00:56;;;;;;;8.75;3.65;;;;;;;0.53;100.00;99882.84;5042366;28;20510;-85
2021/12/02 07:03:21;;;;;;;7.50;4.20;;;;;;;0.57;100.00;99888.84;5034697;28;20473;-85
2021/12/02 07:05:46;;;;;;;11.15;4.45;;;;;;;0.64;100.00;99909.63;5036637;28;20026;-85
2021/12/02 07:08:13;;;;;;;10.90;4.88;;;;;;;0.69;100.00;99919.97;5040178;28;20489;-85
2021/12/02 07:10:38;;;;;;;7.70;4.85;;;;;;;0.62;100.00;99886.97;5047442;28;20075;-84
2021/12/02 07:13:03;;;;;;;7.20;5.07;;;;;;;0.84;100.00;99924.84;5026852;28;20037;-85
2021/12/02 07:15:31;;;;;;;10.50;6.07;;;;;;;0.80;100.00;99917.09;5024861;28;20041;-86
2021/12/02 07:17:58;;;;;;;13.18;6.45;;;;;;;0.84;100.00;99931.84;5035885;28;20032;-87
2021/12/02 07:20:34;;;;;;;9.85;5.28;;;;;;;0.83;100.00;99935.31;5044203;28;20109;-86
2021/12/02 07:22:59;;;;;;;9.73;5.28;;;;;;;0.80;100.00;99933.66;5042777;28;20033;-85
2021/12/02 07:25:26;;;;;;;10.77;5.15;;;;;;;0.76;100.00;99939.88;5046763;28;20128;-84
2021/12/02 07:27:51;;;;;;;9.52;4.57;;;;;;;0.71;100.00;99936.50;5046577;28;20087;-84
2021/12/02 07:30:17;;;;;;;8.40;5.10;;;;;;;0.74;100.00;99946.91;5050070;28;20033;-84
2021/12/02 07:32:51;;;;;;;7.60;4.80;;;;;;;0.81;100.00;99947.63;5047302;28;20044;-85
2021/12/02 07:35:16;;;;;;;;;;;;;;;0.89;100.00;99951.75;5045628;28;20441;-84
2021/12/02 07:37:45;;;;;;;9.52;5.35;;;;;;;0.86;100.00;99950.97;5048617;28;19920;-87
2021/12/02 07:40:11;;;;;;;7.63;5.35;;;;;;;0.90;100.00;99955.25;5045309;28;20029;-85
2021/12/02 07:42:36;;;;;;;10.27;5.18;;;;;;;0.84;100.00;99951.03;5041387;28;20040;-86
2021/12/02 07:45:04;;;;;;;7.47;4.80;;;;;;;0.90;100.00;99960.47;5031043;28;20033;-86
2021/12/02 07:47:30;;;;;;;11.65;4.95;;;;;;;0.89;100.00;99967.47;5031952;28;20021;-86
2021/12/02 07:49:55;;;;;;;7.45;4.22;;;;;;;0.81;100.00;99961.56;5032421;28;20390;-85
2021/12/02 07:52:24;;;;;;;11.93;4.50;;;;;;;0.78;100.00;99958.16;5039628;28;20064;-85
2021/12/02 07:54:51;;;;;;;10.32;4.10;;;;;;;0.73;100.00;99958.28;5032593;28;20095;-84
2021/12/02 07:57:17;;;;;;;11.40;4.57;;;;;;;0.66;100.00;99962.81;5047107;28;20086;-85
2021/12/02 07:59:42;;;;;;;6.93;4.18;;;;;;;0.69;100.00;99959.25;5042285;28;20485;-85
2021/12/02 08:02:15;;;;;;;9.65;6.07;;;;;;;0.71;100.00;99963.56;5037449;28;20025;-85
2021/12/02 08:04:41;;;;;;;11.40;7.18;;;;;;;0.74;100.00;99967.84;5026887;28;20029;-84
2021/12/02 08:07:06;;;;;;;12.18;7.90;;;;;;;0.74;100.00;99966.09;5030213;28;20033;-85
2021/12/02 08:09:32;;;;;;;12.95;7.47;;;;;;;0.74;100.00;99971.34;5043001;28;20029;-84
2021/12/02 08:11:59;;;;;;;11.98;7.88;;;;;;;0.74;100.00;99973.09;5039851;28;20022;-83
2021/12/02 08:14:25;;;;;;;15.70;7.68;;;;;;;0.68;100.00;99971.50;5039463;28;20340;-84
2021/12/02 08:16:50;;;;;;;11.88;6.53;;;;;;;0.66;100.00;99975.91;5043422;28;20162;-85
2021/12/02 08:19:16;;;;;;;10.95;7.20;;;;;;;0.62;100.00;99981.25;5048005;28;20056;-84
2021/12/02 08:21:41;;;;;;;9.52;6.25;;;;;;;0.60;100.00;99990.91;5046461;28;20021;-84
2021/12/02 08:24:06;;;;;;;13.02;6.70;;;;;;;0.59;100.00;99981.34;5045073;28;20040;-86
2021/12/02 08:26:33;;;;;;;9.00;6.38;;;;;;;0.56;100.00;99990.13;5037247;28;20052;-85
2021/12/02 08:28:58;;;;;;;17.52;9.25;;;;;;;0.58;100.00;99987.47;5049130;28;20033;-85
2021/12/02 08:31:23;;;;;;;13.35;6.97;;;;;;;0.57;100.00;99993.59;5046724;28;20153;-85
2021/12/02 08:33:52;;;;;;;10.25;6.35;;;;;;;0.53;100.00;99990.19;5039455;28;20029;-85
2021/12/02 08:36:21;;;;;;;11.95;5.82;;;;;;;0.52;100.00;99993.72;5039710;28;20494;-85
2021/12/02 08:38:47;;;;;;;14.25;6.47;;;;;;;0.48;100.00;99995.53;5042112;28;20033;-85
2021/12/02 08:41:13;;;;;;;11.77;5.55;;;;;;;0.43;100.00;99996.53;5046176;28;20071;-84
2021/12/02 08:43:39;;;;;;;7.20;4.75;;;;;;;0.34;100.00;99995.00;5043891;28;20037;-85
2021/12/02 08:46:04;;;;;;;7.60;4.38;;;;;;;0.42;100.00;100008.78;5031536;28;20208;-85
2021/12/02 08:48:29;;;;;;;6.65;4.18;;;;;;;0.43;100.00;100013.09;5049216;28;20029;-85
2021/12/02 08:50:55;;;;;;;9.20;4.60;;;;;;;0.41;100.00;100011.41;5042606;28;20680;-85
2021/12/02 08:53:20;;;;;;;9.20;4.40;;;;;;;0.30;100.00;99990.72;5044984;28;20029;-86
2021/12/02 08:55:45;;;;;;;6.15;3.42;;;;;;;0.46;100.00;100018.28;5050069;28;20159;-85
2021/12/02 08:58:10;;;;;;;9.15;4.32;;;;;;;0.50;100.00;100029.53;5048721;28;20021;-83
2021/12/02 09:00:40;;;;;;;11.90;4.18;;;;;;;0.49;100.00;100027.81;5048407;28;20025;-84
2021/12/02 09:03:08;;;;;;;11.93;4.50;;;;;;;0.45;100.00;100026.16;5030717;28;20091;-85
2021/12/02 09:05:35;;;;;;;10.13;4.45;;;;;;;0.63;100.00;100051.94;5048032;28;20605;-86
2021/12/02 09:08:00;;;;;;;12.18;4.50;;;;;;;0.79;100.00;100051.56;5048035;28;20036;-85
2021/12/02 09:10:27;;;;;;;9.02;5.43;;;;;;;1.03;100.00;100055.38;5046669;28;20045;-85
2021/12/02 09:12:53;;;;;;;11.65;4.85;;;;;;;1.13;100.00;100062.09;5013734;28;20025;-84
2021/12/02 09:15:19;;;;;;;11.70;5.30;;;;;;;1.23;100.00;100056.59;5041688;28;20025;-85
2021/12/02 09:17:44;;;;;;;10.52;4.68;;;;;;;1.41;100.00;100080.63;5038058;28;20036;-84
2021/12/02 09:20:15;;;;;;;13.00;5.28;;;;;;;1.52;100.00;100075.97;5030698;28;20394;-85
2021/12/02 09:22:42;;;;;;;9.15;3.90;;;;;;;1.48;100.00;100075.19;5042764;28;20178;-84
2021/12/02 09:25:08;;;;;;;8.23;4.22;;;;;;;1.39;100.00;100075.41;5048815;28;20029;-85
2021/12/02 09:27:34;;;;;;;6.93;4.35;;;;;;;1.39;100.00;100079.81;5049264;28;20114;-84
2021/12/02 09:30:00;;;;;;;11.20;4.28;;;;;;;1.27;100.00;100078.34;5029189;28;20290;-84
2021/12/02 09:32:26;;;;;;;7.20;3.28;;;;;;;1.27;100.00;100080.97;5037636;28;20025;-84
2021/12/02 09:34:52;;;;;;;9.32;3.95;;;;;;;1.28;100.00;100087.94;5039398;28;20108;-85
2021/12/02 09:37:17;;;;;;;6.47;2.88;;;;;;;1.27;100.00;100085.34;5030227;28;20191;-86
2021/12/02 09:39:42;;;;;;;8.88;3.40;;;;;;;1.29;100.00;100094.03;5041990;28;20099;-85
2021/12/02 09:42:11;;;;;;;15.95;6.68;;;;;;;1.29;100.00;100089.66;5040554;28;20040;-84
2021/12/02 09:44:38;;;;;;;16.67;5.47;;;;;;;1.36;100.00;100093.00;5048276;28;20382;-85
2021/12/02 09:47:04;;;;;;;7.68;3.90;;;;;;;1.40;100.00;100102.50;5047915;28;20043;-85
2021/12/02 09:49:30;;;;;;;11.32;3.15;;;;;;;1.38;100.00;100092.06;5041363;28;20471;-85
2021/12/02 09:52:01;;;;;;;9.82;3.30;;;;;;;1.34;100.00;100097.41;5042589;28;20475;-85
2021/12/02 09:56:59;;;;;;;8.15;3.13;;;;;;;1.31;100.00;100100.13;5045285;28;20045;-87
2021/12/02 09:59:30;;;;;;;10.00;3.38;;;;;;;1.28;100.00;100094.94;5042439;28;20029;-83
2021/12/02 10:02:04;;;;;;;18.13;5.75;;;;;;;1.27;100.00;100095.84;5045073;28;20040;-82
2021/12/02 10:04:29;;;;;;;;;;;;;;;1.30;100.00;100091.38;5043542;28;20025;-85
2021/12/02 10:07:09;;;;;;;11.27;3.67;;;;;;;1.37;100.00;100082.44;5048271;28;19916;-84
2021/12/02 10:09:43;;;;;;;8.30;3.28;;;;;;;1.42;100.00;100074.47;5028438;28;20037;-86
2021/12/02 10:12:19;;;;;;;11.07;3.20;;;;;;;1.48;100.00;100082.19;5032277;28;20532;-84
2021/12/02 10:15:01;;;;;;;9.75;4.53;;;;;;;1.58;100.00;100086.28;5042622;28;20083;-84
2021/12/02 10:20:13;;;;;;;10.85;4.72;;;;;;;1.68;100.00;100107.91;5035991;28;20041;-84
2021/12/02 10:22:40;;;;;;;8.20;4.35;;;;;;;1.56;100.00;100095.13;5037950;28;20478;-84
2021/12/02 10:25:06;;;;;;;9.77;5.35;;;;;;;1.44;100.00;100098.91;5033320;28;20025;-84
2021/12/02 10:27:31;;;;;;;12.15;5.75;;;;;;;1.47;100.00;100115.44;5048035;28;20107;-85
2021/12/02 10:29:57;;;;;;;11.73;5.63;;;;;;;1.52;100.00;100107.44;5045019;28;20047;-84
2021/12/02 10:32:28;;;;;;;11.02;5.78;;;;;;;1.55;100.00;100106.47;5014690;28;20533;-84
2021/12/02 10:34:55;;;;;;;10.65;5.88;;;;;;;1.64;100.00;100111.50;5043161;28;20449;-84
2021/12/02 10:37:26;;;;;;;12.30;4.97;;;;;;;1.77;100.00;100098.94;5047297;28;20116;-83
2021/12/02 10:40:11;;;;;;;10.07;5.32;;;;;;;1.76;100.00;100111.19;5034951;28;20478;-84
2021/12/02 10:42:42;;;;;;;9.02;4.55;;;;;;;1.64;100.00;100101.03;5037414;28;20062;-83
2021/12/02 10:45:25;;;;;;;10.60;4.53;;;;;;;1.74;100.00;100121.72;5011342;28;20030;-83
2021/12/02 10:47:55;;;;;;;7.82;3.95;;;;;;;1.89;100.00;100124.84;5017565;28;20025;-84
2021/12/02 10:50:21;;;;;;;8.20;3.83;;;;;;;2.01;100.00;100129.75;5032782;28;20033;-84
2021/12/02 10:52:47;;;;;;;10.18;3.92;;;;;;;2.05;100.00;100125.25;5024633;28;20040;-84
2021/12/02 10:55:18;;;;;;;10.55;4.90;;;;;;;1.97;100.00;100128.13;5027172;28;20389;-85
2021/12/02 10:57:47;;;;;;;10.27;4.63;;;;;;;1.81;100.00;100124.19;5047467;28;20177;-85
2021/12/02 11:00:18;;;;;;;9.90;4.57;;;;;;;1.76;100.00;100132.19;5041663;28;20395;-85
2021/12/02 11:02:49;;;;;;;9.43;4.43;;;;;;;1.69;100.00;100126.22;5045057;28;20036;-85
2021/12/02 11:05:25;;;;;;;9.05;4.38;;;;;;;1.66;100.00;100136.78;5047053;28;20597;-85
2021/12/02 11:07:54;;;;;;;13.40;5.40;;;;;;;1.65;100.00;100137.69;5047403;28;20121;-85
2021/12/02 11:10:20;;;;;;;11.63;4.80;;;;;;;1.75;100.00;100135.69;5045076;28;20043;-84
2021/12/02 11:12:48;;;;;;;8.65;4.18;;;;;;;2.00;100.00;100138.53;5045715;28;20448;-86
2021/12/02 11:15:20;;;;;;;13.63;5.05;;;;;;;2.21;100.00;100139.69;5046701;28;20021;-84
2021/12/02 11:17:49;;;;;;;14.50;5.15;;;;;;;2.50;100.00;100144.97;5047190;28;20094;-84
2021/12/02 11:20:21;;;;;;;8.40;4.85;;;;;;;2.47;100.00;100138.97;5040983;28;20022;-84
2021/12/02 11:22:51;;;;;;;8.33;4.87;;;;;;;2.39;100.00;100146.22;5030048;28;20061;-84
2021/12/02 11:25:17;;;;;;;12.82;5.65;;;;;;;2.37;100.00;100148.00;5045694;28;20284;-84
2021/12/02 11:27:45;;;;;;;11.38;6.28;;;;;;;2.21;100.00;100135.28;5047332;28;20079;-85
2021/12/02 11:30:16;;;;;;;10.80;5.55;;;;;;;2.17;100.00;100146.81;5041153;28;20036;-84
2021/12/02 11:32:54;;;;;;;8.77;4.60;;;;;;;2.11;100.00;100143.50;5037890;28;20032;-84
2021/12/02 11:35:33;;;;;;;11.77;5.13;;;;;;;2.14;100.00;100144.28;5040325;28;20026;-85
2021/12/02 11:38:06;;;;;;;6.43;4.78;;;;;;;2.08;100.00;100130.44;5028995;28;20189;-85
2021/12/02 11:40:39;;;;;;;9.43;4.50;;;;;;;2.10;100.00;100144.41;5045052;28;20124;-85
2021/12/02 11:43:06;;;;;;;6.90;4.90;;;;;;;2.15;100.00;100147.75;5022924;28;20030;-85
2021/12/02 11:45:35;;;;;;;8.55;4.70;;;;;;;2.12;100.00;100158.34;5040304;28;20139;-86